Time;durP1;ratioP1;P1;durP2;ratioP2;P2;SDS_P1;SDS_P2;PMS_P1;PMS_P2;Temp;Humidity;BMP_temperature;BMP_pressure;BME280_temperature;BME280_humidity;BME280_pressure;Samples;Min_cycle;Max_cycle;Signal;HPM_P1;HPM_P2
2021/10/05 00:01:12;;;;;;;0.63;0.63;;;;;;;;;;5007822;28;20034;-86
2021/10/05 00:03:38;;;;;;;0.52;0.52;;;;;;;;;;5008886;28;20438;-84
2021/10/05 00:06:04;;;;;;;0.57;0.57;;;;;;;;;;5006975;28;20213;-86
2021/10/05 00:08:30;;;;;;;0.20;0.20;;;;;;;;;;5007307;28;20109;-86
2021/10/05 00:10:56;;;;;;;0.50;0.40;;;;;;;;;;5005585;28;20049;-85
2021/10/05 00:13:23;;;;;;;0.67;0.67;;;;;;;;;;5005046;28;20335;-86
2021/10/05 00:15:50;;;;;;;0.32;0.32;;;;;;;;;;5006776;28;20797;-86
2021/10/05 00:18:16;;;;;;;0.15;0.15;;;;;;;;;;5005870;28;20682;-86
2021/10/05 00:20:42;;;;;;;0.20;0.20;;;;;;;;;;5006474;28;20034;-86
2021/10/05 00:23:08;;;;;;;0.40;0.40;;;;;;;;;;5005105;28;20171;-85
2021/10/05 00:25:34;;;;;;;0.00;0.00;;;;;;;;;;4998135;28;20407;-85
2021/10/05 00:28:00;;;;;;;0.20;0.20;;;;;;;;;;5007510;28;20041;-87
2021/10/05 00:30:26;;;;;;;0.10;0.10;;;;;;;;;;4994648;28;20297;-85
2021/10/05 00:32:53;;;;;;;0.17;0.17;;;;;;;;;;5001792;28;20038;-85
2021/10/05 00:35:19;;;;;;;0.10;0.10;;;;;;;;;;5007032;28;20050;-85
2021/10/05 00:37:45;;;;;;;0.20;0.20;;;;;;;;;;5006439;28;20022;-86
2021/10/05 00:40:11;;;;;;;0.00;0.00;;;;;;;;;;5007550;28;20438;-86
2021/10/05 00:42:37;;;;;;;0.20;0.20;;;;;;;;;;5006277;28;20708;-85
2021/10/05 00:45:03;;;;;;;0.65;0.45;;;;;;;;;;5006857;28;20034;-86
2021/10/05 00:47:29;;;;;;;0.10;0.10;;;;;;;;;;5006160;28;20060;-85
2021/10/05 00:49:55;;;;;;;0.10;0.10;;;;;;;;;;5005560;28;20120;-86
2021/10/05 00:52:22;;;;;;;0.10;0.10;;;;;;;;;;5006349;28;20064;-86
2021/10/05 00:54:48;;;;;;;0.03;0.03;;;;;;;;;;5006664;28;20123;-85
2021/10/05 00:57:14;;;;;;;0.10;0.10;;;;;;;;;;5004203;28;20048;-86
2021/10/05 00:59:41;;;;;;;0.25;0.25;;;;;;;;;;5004606;28;20087;-86
2021/10/05 01:02:11;;;;;;;0.35;0.35;;;;;;;;;;4999664;28;20030;-86
2021/10/05 01:04:37;;;;;;;0.45;0.45;;;;;;;;;;4991589;28;20030;-86
2021/10/05 01:07:08;;;;;;;0.63;0.63;;;;;;;;;;5007995;28;20030;-86
2021/10/05 01:09:35;;;;;;;0.22;0.22;;;;;;;;;;5004883;28;20131;-86
2021/10/05 01:12:01;;;;;;;;;;;;;;;;;;5001988;28;20034;-85
2021/10/05 01:14:27;;;;;;;0.38;0.38;;;;;;;;;;4998156;28;19913;-85
2021/10/05 01:16:55;;;;;;;0.10;0.10;;;;;;;;;;5004843;28;20050;-85
2021/10/05 01:19:21;;;;;;;0.43;0.43;;;;;;;;;;5004517;28;20137;-85
2021/10/05 01:21:47;;;;;;;0.10;0.10;;;;;;;;;;5007049;28;20036;-85
2021/10/05 01:24:19;;;;;;;0.10;0.10;;;;;;;;;;4998673;28;20478;-87
2021/10/05 01:26:45;;;;;;;0.10;0.10;;;;;;;;;;4993554;28;20034;-86
2021/10/05 01:29:15;;;;;;;1.10;0.83;;;;;;;;;;5004330;28;20037;-85
2021/10/05 01:31:42;;;;;;;0.10;0.10;;;;;;;;;;4991970;28;20116;-86
2021/10/05 01:34:08;;;;;;;2.53;1.13;;;;;;;;;;4996983;28;20022;-86
2021/10/05 01:36:35;;;;;;;0.80;0.80;;;;;;;;;;5007715;28;20042;-85
2021/10/05 01:39:01;;;;;;;3.35;1.17;;;;;;;;;;5005490;28;20118;-85
2021/10/05 01:41:27;;;;;;;0.30;0.30;;;;;;;;;;5002224;28;20041;-85
2021/10/05 01:43:53;;;;;;;1.60;0.73;;;;;;;;;;5010218;28;20110;-86
2021/10/05 01:46:20;;;;;;;0.10;0.10;;;;;;;;;;4997559;28;20440;-84
2021/10/05 01:48:46;;;;;;;0.10;0.10;;;;;;;;;;5011396;28;20034;-86
2021/10/05 01:51:13;;;;;;;0.47;0.47;;;;;;;;;;5010134;28;20049;-85
2021/10/05 01:53:39;;;;;;;0.10;0.10;;;;;;;;;;5007466;28;20021;-86
2021/10/05 01:56:06;;;;;;;0.47;0.32;;;;;;;;;;5009542;28;20483;-85
2021/10/05 01:58:33;;;;;;;0.30;0.30;;;;;;;;;;5007928;28;20031;-84
2021/10/05 02:00:59;;;;;;;0.10;0.10;;;;;;;;;;5011122;28;20117;-86
2021/10/05 02:03:25;;;;;;;0.10;0.10;;;;;;;;;;5008047;28;20436;-86
2021/10/05 02:05:51;;;;;;;4.93;1.40;;;;;;;;;;5011008;28;20029;-86
2021/10/05 02:08:18;;;;;;;0.87;0.57;;;;;;;;;;5007214;28;20136;-86
2021/10/05 02:10:44;;;;;;;0.45;0.45;;;;;;;;;;5008870;28;20297;-84
2021/10/05 02:13:10;;;;;;;0.30;0.30;;;;;;;;;;5010139;28;21085;-84
2021/10/05 02:15:36;;;;;;;0.10;0.10;;;;;;;;;;5001884;28;20073;-86
2021/10/05 02:18:06;;;;;;;0.10;0.10;;;;;;;;;;5003877;28;20050;-86
2021/10/05 02:20:33;;;;;;;0.17;0.17;;;;;;;;;;5009235;28;20041;-85
2021/10/05 02:23:00;;;;;;;0.10;0.10;;;;;;;;;;5006856;28;20045;-85
2021/10/05 02:25:26;;;;;;;0.57;0.28;;;;;;;;;;5003615;28;20034;-86
2021/10/05 02:27:52;;;;;;;0.10;0.10;;;;;;;;;;5009521;28;20113;-85
2021/10/05 02:30:19;;;;;;;0.10;0.10;;;;;;;;;;5008038;28;20510;-86
2021/10/05 02:32:45;;;;;;;0.55;0.55;;;;;;;;;;5005641;28;20402;-85
2021/10/05 02:35:11;;;;;;;0.22;0.22;;;;;;;;;;4997430;28;20041;-85
2021/10/05 02:37:38;;;;;;;0.60;0.40;;;;;;;;;;5007554;28;20122;-85
2021/10/05 02:40:07;;;;;;;0.20;0.20;;;;;;;;;;5009958;28;20034;-85
2021/10/05 02:42:33;;;;;;;2.10;1.10;;;;;;;;;;5007977;28;20037;-86
2021/10/05 02:45:00;;;;;;;0.43;0.43;;;;;;;;;;5006797;28;20491;-85
2021/10/05 02:47:26;;;;;;;0.28;0.28;;;;;;;;;;5006178;28;20053;-85
2021/10/05 02:49:52;;;;;;;0.10;0.10;;;;;;;;;;5007596;28;20038;-84
2021/10/05 02:52:20;;;;;;;0.03;0.03;;;;;;;;;;5006635;28;20395;-86
2021/10/05 02:54:47;;;;;;;0.20;0.20;;;;;;;;;;4995784;28;20288;-86
2021/10/05 02:57:12;;;;;;;;;;;;;;;;;;4998507;28;20042;-85
2021/10/05 02:59:38;;;;;;;0.05;0.05;;;;;;;;;;4999732;28;19913;-85
2021/10/05 03:02:04;;;;;;;0.43;0.43;;;;;;;;;;5003545;28;20045;-85
2021/10/05 03:04:30;;;;;;;0.50;0.50;;;;;;;;;;4999397;28;20034;-86
2021/10/05 03:06:57;;;;;;;0.83;0.57;;;;;;;;;;5009396;28;20054;-84
2021/10/05 03:09:23;;;;;;;0.00;0.00;;;;;;;;;;5007473;28;20046;-85
2021/10/05 03:11:49;;;;;;;0.10;0.10;;;;;;;;;;5004853;28;20029;-84
2021/10/05 03:14:15;;;;;;;0.30;0.30;;;;;;;;;;5005941;28;20026;-84
2021/10/05 03:16:41;;;;;;;0.10;0.10;;;;;;;;;;4997757;28;20866;-86
2021/10/05 03:19:07;;;;;;;3.38;0.50;;;;;;;;;;4968068;28;1175784;-86
2021/10/05 03:21:33;;;;;;;0.70;0.70;;;;;;;;;;5007463;28;20084;-86
2021/10/05 03:23:59;;;;;;;0.20;0.20;;;;;;;;;;5003218;28;20290;-85
2021/10/05 03:26:25;;;;;;;0.10;0.10;;;;;;;;;;5004891;28;20037;-86
2021/10/05 03:28:51;;;;;;;0.40;0.40;;;;;;;;;;5001991;28;20127;-86
2021/10/05 03:31:18;;;;;;;0.10;0.10;;;;;;;;;;5001719;28;20046;-85
2021/10/05 03:33:45;;;;;;;2.28;1.55;;;;;;;;;;4997832;28;20137;-85
2021/10/05 03:36:11;;;;;;;1.00;1.00;;;;;;;;;;5002839;28;20068;-86
2021/10/05 03:38:38;;;;;;;0.10;0.10;;;;;;;;;;5002045;28;20430;-85
2021/10/05 03:41:04;;;;;;;;;;;;;;;;;;5007114;28;20763;-85
2021/10/05 03:43:30;;;;;;;0.10;0.10;;;;;;;;;;5031450;28;19971;-86
2021/10/05 03:45:56;;;;;;;3.22;0.47;;;;;;;;;;4998946;28;20041;-86
2021/10/05 03:48:23;;;;;;;1.30;0.40;;;;;;;;;;5005392;28;20426;-85
2021/10/05 03:50:49;;;;;;;0.17;0.17;;;;;;;;;;5005937;28;20038;-84
2021/10/05 03:53:19;;;;;;;0.40;0.40;;;;;;;;;;5007549;28;20092;-85
2021/10/05 03:55:46;;;;;;;0.13;0.13;;;;;;;;;;5005216;28;20383;-85
2021/10/05 03:58:12;;;;;;;0.10;0.10;;;;;;;;;;5008292;28;20025;-86
2021/10/05 04:00:38;;;;;;;2.87;0.47;;;;;;;;;;5004366;28;20495;-85
2021/10/05 04:03:04;;;;;;;0.20;0.20;;;;;;;;;;5002328;28;20285;-85
2021/10/05 04:05:30;;;;;;;0.98;0.55;;;;;;;;;;5006976;28;20096;-84
2021/10/05 04:07:56;;;;;;;0.10;0.10;;;;;;;;;;5007289;28;20471;-84
2021/10/05 04:10:22;;;;;;;0.20;0.20;;;;;;;;;;5006890;28;20627;-85
2021/10/05 04:12:48;;;;;;;0.33;0.33;;;;;;;;;;5007095;28;20060;-85
2021/10/05 04:15:14;;;;;;;0.10;0.10;;;;;;;;;;5005133;28;20410;-84
2021/10/05 04:17:40;;;;;;;0.10;0.10;;;;;;;;;;5006169;28;20041;-85
2021/10/05 04:20:07;;;;;;;0.10;0.10;;;;;;;;;;5006368;28;20045;-85
2021/10/05 04:22:33;;;;;;;0.25;0.25;;;;;;;;;;5006712;28;20034;-84
2021/10/05 04:24:59;;;;;;;1.70;1.30;;;;;;;;;;5001555;28;20037;-85
2021/10/05 04:27:25;;;;;;;0.20;0.20;;;;;;;;;;5003986;28;20284;-85
2021/10/05 04:29:51;;;;;;;12.83;1.60;;;;;;;;;;5004356;28;20049;-87
2021/10/05 04:32:17;;;;;;;0.10;0.10;;;;;;;;;;4998421;28;20029;-85
2021/10/05 04:34:43;;;;;;;0.10;0.10;;;;;;;;;;4992912;28;20076;-84
2021/10/05 04:37:09;;;;;;;1.25;0.63;;;;;;;;;;5008631;28;20037;-85
2021/10/05 04:39:36;;;;;;;3.30;0.45;;;;;;;;;;5006706;28;20033;-84
2021/10/05 04:42:03;;;;;;;0.17;0.17;;;;;;;;;;5006218;28;20034;-83
2021/10/05 04:44:29;;;;;;;0.35;0.35;;;;;;;;;;5006414;28;20057;-86
2021/10/05 04:46:55;;;;;;;0.10;0.10;;;;;;;;;;4995443;28;20051;-84
2021/10/05 04:49:21;;;;;;;0.10;0.10;;;;;;;;;;5005509;28;20042;-85
2021/10/05 04:51:47;;;;;;;0.20;0.20;;;;;;;;;;5008277;28;20495;-85
2021/10/05 04:54:13;;;;;;;0.10;0.10;;;;;;;;;;5006125;28;20059;-86
2021/10/05 04:56:39;;;;;;;0.37;0.37;;;;;;;;;;5006396;28;20164;-84
2021/10/05 04:59:05;;;;;;;0.10;0.10;;;;;;;;;;5006931;28;20033;-85
2021/10/05 05:01:31;;;;;;;0.73;0.60;;;;;;;;;;5002867;28;20501;-86
2021/10/05 05:03:58;;;;;;;0.23;0.23;;;;;;;;;;4999604;28;20038;-85
2021/10/05 05:06:24;;;;;;;0.77;0.70;;;;;;;;;;4995461;28;20371;-85
2021/10/05 05:08:50;;;;;;;0.10;0.10;;;;;;;;;;4999898;28;20028;-85
2021/10/05 05:11:16;;;;;;;5.10;1.60;;;;;;;;;;4999358;28;20509;-85
2021/10/05 05:13:42;;;;;;;0.10;0.10;;;;;;;;;;5000262;28;20040;-85
2021/10/05 05:16:08;;;;;;;0.13;0.13;;;;;;;;;;5002282;28;20037;-84
2021/10/05 05:18:34;;;;;;;1.58;1.20;;;;;;;;;;4990721;28;20289;-85
2021/10/05 05:21:00;;;;;;;0.10;0.10;;;;;;;;;;4995888;28;20080;-85
2021/10/05 05:23:26;;;;;;;3.53;1.83;;;;;;;;;;4996864;28;20068;-83
2021/10/05 05:25:52;;;;;;;0.40;0.40;;;;;;;;;;4988812;28;20036;-85
2021/10/05 05:28:20;;;;;;;0.27;0.27;;;;;;;;;;5002510;28;20490;-85
2021/10/05 05:30:46;;;;;;;16.58;2.58;;;;;;;;;;5003312;28;20601;-84
2021/10/05 05:33:12;;;;;;;0.20;0.20;;;;;;;;;;4997208;28;20034;-85
2021/10/05 05:35:38;;;;;;;0.27;0.27;;;;;;;;;;4994439;28;20498;-85
2021/10/05 05:38:04;;;;;;;0.20;0.20;;;;;;;;;;5001300;28;20661;-84
2021/10/05 05:40:30;;;;;;;0.60;0.50;;;;;;;;;;5002641;28;20044;-84
2021/10/05 05:42:56;;;;;;;4.37;0.80;;;;;;;;;;5004227;28;20272;-84
2021/10/05 05:45:22;;;;;;;0.08;0.08;;;;;;;;;;4999443;28;20462;-84
2021/10/05 05:47:50;;;;;;;1.20;0.73;;;;;;;;;;4996565;28;20022;-84
2021/10/05 05:50:16;;;;;;;0.25;0.25;;;;;;;;;;5001735;28;20454;-84
2021/10/05 05:52:42;;;;;;;0.10;0.10;;;;;;;;;;5000558;28;20042;-83
2021/10/05 05:55:09;;;;;;;0.70;0.65;;;;;;;;;;5002426;28;20042;-84
2021/10/05 05:57:35;;;;;;;1.00;0.95;;;;;;;;;;5001455;28;20083;-82
2021/10/05 06:00:01;;;;;;;0.15;0.15;;;;;;;;;;4998637;28;20427;-83
2021/10/05 06:02:27;;;;;;;0.25;0.25;;;;;;;;;;4993794;28;20033;-83
2021/10/05 06:04:53;;;;;;;0.30;0.30;;;;;;;;;;5002661;28;20492;-84
2021/10/05 06:07:19;;;;;;;1.00;0.80;;;;;;;;;;5002803;28;20517;-83
2021/10/05 06:09:45;;;;;;;0.20;0.20;;;;;;;;;;5003998;28;20120;-83
2021/10/05 06:12:16;;;;;;;3.17;1.65;;;;;;;;;;5001124;28;20129;-84
2021/10/05 06:14:42;;;;;;;0.80;0.40;;;;;;;;;;5002305;28;20604;-83
2021/10/05 06:17:10;;;;;;;0.77;0.77;;;;;;;;;;5002298;28;20071;-83
2021/10/05 06:19:36;;;;;;;0.20;0.20;;;;;;;;;;4986366;28;20181;-84
2021/10/05 06:22:02;;;;;;;0.17;0.17;;;;;;;;;;5003730;28;20084;-82
2021/10/05 06:24:28;;;;;;;2.57;1.50;;;;;;;;;;5001825;28;20030;-83
2021/10/05 06:26:54;;;;;;;0.10;0.10;;;;;;;;;;5001939;28;20109;-83
2021/10/05 06:29:20;;;;;;;0.10;0.10;;;;;;;;;;5004545;28;20578;-83
2021/10/05 06:31:46;;;;;;;0.87;0.53;;;;;;;;;;5005273;28;20069;-83
2021/10/05 06:34:12;;;;;;;2.07;1.40;;;;;;;;;;4994120;28;20030;-83
2021/10/05 06:36:38;;;;;;;0.10;0.10;;;;;;;;;;5006296;28;20300;-82
2021/10/05 06:39:04;;;;;;;0.33;0.20;;;;;;;;;;5004978;28;20384;-84
2021/10/05 06:41:30;;;;;;;0.20;0.20;;;;;;;;;;5002929;28;20619;-84
2021/10/05 06:43:56;;;;;;;0.10;0.10;;;;;;;;;;5002339;28;20888;-83
2021/10/05 06:46:23;;;;;;;0.10;0.10;;;;;;;;;;4994064;28;20026;-84
2021/10/05 06:48:49;;;;;;;0.20;0.20;;;;;;;;;;5005525;28;20276;-83
2021/10/05 06:51:15;;;;;;;0.10;0.10;;;;;;;;;;5003469;28;20067;-83
2021/10/05 06:53:41;;;;;;;0.67;0.67;;;;;;;;;;5006678;28;20053;-83
2021/10/05 06:56:07;;;;;;;0.17;0.17;;;;;;;;;;5003716;28;20930;-83
2021/10/05 06:58:33;;;;;;;0.20;0.20;;;;;;;;;;5004463;28;20031;-82
2021/10/05 07:00:59;;;;;;;0.38;0.38;;;;;;;;;;5006737;28;20264;-83
2021/10/05 07:03:25;;;;;;;7.30;1.97;;;;;;;;;;5004078;28;20129;-82
2021/10/05 07:05:52;;;;;;;0.68;0.68;;;;;;;;;;5004221;28;20804;-82
2021/10/05 07:08:18;;;;;;;0.13;0.13;;;;;;;;;;5003364;28;20072;-80
2021/10/05 07:10:44;;;;;;;0.10;0.10;;;;;;;;;;5003416;28;20411;-81
2021/10/05 07:13:10;;;;;;;0.30;0.30;;;;;;;;;;5004045;28;20351;-81
2021/10/05 07:15:36;;;;;;;0.17;0.17;;;;;;;;;;5004283;28;20030;-81
2021/10/05 07:18:03;;;;;;;0.20;0.20;;;;;;;;;;5004694;28;20450;-81
2021/10/05 07:20:30;;;;;;;0.10;0.10;;;;;;;;;;5004912;28;20112;-81
2021/10/05 07:22:56;;;;;;;;;;;;;;;;;;5005271;28;20034;-81
2021/10/05 07:25:22;;;;;;;0.50;0.50;;;;;;;;;;5005457;28;19915;-81
2021/10/05 07:27:51;;;;;;;0.30;0.30;;;;;;;;;;5005116;28;20097;-81
2021/10/05 07:30:23;;;;;;;0.10;0.10;;;;;;;;;;5004947;28;20073;-81
2021/10/05 07:32:50;;;;;;;0.20;0.20;;;;;;;;;;5002608;28;20026;-82
2021/10/05 07:35:16;;;;;;;0.17;0.17;;;;;;;;;;4994023;28;20104;-81
2021/10/05 07:37:42;;;;;;;0.27;0.23;;;;;;;;;;5002872;28;20498;-81
2021/10/05 07:40:09;;;;;;;0.00;0.00;;;;;;;;;;5005654;28;20029;-82
2021/10/05 07:42:35;;;;;;;0.13;0.13;;;;;;;;;;5005477;28;20773;-82
2021/10/05 07:45:01;;;;;;;0.20;0.20;;;;;;;;;;5005785;28;20038;-82
2021/10/05 07:47:27;;;;;;;1.50;0.67;;;;;;;;;;5004764;28;20572;-82
2021/10/05 07:49:53;;;;;;;0.23;0.23;;;;;;;;;;5004032;28;20104;-80
2021/10/05 07:52:20;;;;;;;0.20;0.20;;;;;;;;;;5005538;28;20072;-81
2021/10/05 07:54:46;;;;;;;0.15;0.15;;;;;;;;;;5006755;28;20038;-81
2021/10/05 07:57:12;;;;;;;0.10;0.10;;;;;;;;;;5004573;28;20040;-81
2021/10/05 07:59:38;;;;;;;0.20;0.20;;;;;;;;;;5004762;28;20030;-81
2021/10/05 08:02:05;;;;;;;3.53;0.57;;;;;;;;;;5003415;28;20526;-81
2021/10/05 08:04:31;;;;;;;0.10;0.10;;;;;;;;;;5004407;28;20038;-81
2021/10/05 08:06:57;;;;;;;1.97;1.40;;;;;;;;;;5006420;28;20116;-81
2021/10/05 08:09:23;;;;;;;0.10;0.10;;;;;;;;;;5004556;28;20430;-81
2021/10/05 08:11:49;;;;;;;0.10;0.10;;;;;;;;;;5004278;28;20038;-81
2021/10/05 08:14:15;;;;;;;0.00;0.00;;;;;;;;;;5005085;28;20124;-81
2021/10/05 08:16:41;;;;;;;2.63;0.38;;;;;;;;;;5004372;28;20036;-81
2021/10/05 08:19:07;;;;;;;0.50;0.50;;;;;;;;;;5005863;28;20057;-80
2021/10/05 08:21:33;;;;;;;0.20;0.20;;;;;;;;;;5003802;28;20112;-80
2021/10/05 08:23:59;;;;;;;0.60;0.60;;;;;;;;;;5004347;28;20468;-81
2021/10/05 08:26:25;;;;;;;0.10;0.10;;;;;;;;;;5003974;28;20135;-80
2021/10/05 08:28:51;;;;;;;1.67;1.03;;;;;;;;;;5004130;28;20025;-82
2021/10/05 08:31:18;;;;;;;0.30;0.30;;;;;;;;;;5004974;28;20300;-80
2021/10/05 08:33:44;;;;;;;;;;;;;;;;;;4995551;28;20030;-81
2021/10/05 08:36:10;;;;;;;0.20;0.20;;;;;;;;;;5000723;28;19936;-81
2021/10/05 08:38:39;;;;;;;1.20;0.80;;;;;;;;;;5004123;28;20383;-81
2021/10/05 08:41:06;;;;;;;0.10;0.10;;;;;;;;;;5003942;28;20026;-81
2021/10/05 08:43:32;;;;;;;0.10;0.10;;;;;;;;;;5003672;28;20051;-81
2021/10/05 08:45:58;;;;;;;0.03;0.03;;;;;;;;;;5005920;28;20450;-81
2021/10/05 08:48:31;;;;;;;0.52;0.52;;;;;;;;;;5003860;28;20457;-80
2021/10/05 08:50:57;;;;;;;0.10;0.10;;;;;;;;;;5003312;28;20192;-81
2021/10/05 08:53:23;;;;;;;0.10;0.10;;;;;;;;;;5003166;28;20101;-81
2021/10/05 08:55:50;;;;;;;0.10;0.10;;;;;;;;;;5003978;28;20510;-80
2021/10/05 08:58:16;;;;;;;0.30;0.30;;;;;;;;;;5004571;28;20026;-80
2021/10/05 09:00:42;;;;;;;0.10;0.10;;;;;;;;;;5004902;28;20042;-80
2021/10/05 09:03:08;;;;;;;0.10;0.10;;;;;;;;;;5002951;28;20108;-80
2021/10/05 09:05:39;;;;;;;3.42;0.95;;;;;;;;;;5003342;28;20042;-81
2021/10/05 09:08:05;;;;;;;0.10;0.10;;;;;;;;;;5003364;28;20014;-80
2021/10/05 09:10:36;;;;;;;0.20;0.20;;;;;;;;;;5003342;28;20087;-81
2021/10/05 09:13:02;;;;;;;0.20;0.20;;;;;;;;;;5005579;28;20097;-81
2021/10/05 09:15:30;;;;;;;0.77;0.77;;;;;;;;;;5002832;28;20168;-80
2021/10/05 09:17:57;;;;;;;0.30;0.30;;;;;;;;;;5002779;28;20092;-81
2021/10/05 09:20:25;;;;;;;10.27;0.35;;;;;;;;;;5003057;28;20022;-81
2021/10/05 09:23:05;;;;;;;0.10;0.10;;;;;;;;;;5003012;28;20034;-81
2021/10/05 09:25:38;;;;;;;0.10;0.10;;;;;;;;;;5003122;28;20038;-81
2021/10/05 09:28:14;;;;;;;0.45;0.45;;;;;;;;;;5001176;28;20124;-80
2021/10/05 09:30:41;;;;;;;0.10;0.10;;;;;;;;;;5004217;28;20050;-81
2021/10/05 09:33:07;;;;;;;0.10;0.10;;;;;;;;;;4997087;28;20539;-80
2021/10/05 09:35:41;;;;;;;0.85;0.85;;;;;;;;;;4994745;28;20091;-79
2021/10/05 09:38:11;;;;;;;1.55;0.55;;;;;;;;;;5002579;28;20026;-80
2021/10/05 09:40:37;;;;;;;0.20;0.20;;;;;;;;;;4987362;28;20034;-80
2021/10/05 09:43:03;;;;;;;0.10;0.10;;;;;;;;;;5004670;28;20029;-80
2021/10/05 09:45:34;;;;;;;0.10;0.10;;;;;;;;;;5002312;28;20091;-80
2021/10/05 09:48:08;;;;;;;4.47;0.35;;;;;;;;;;5002324;28;20040;-80
2021/10/05 09:50:37;;;;;;;0.30;0.30;;;;;;;;;;5002497;28;20049;-79
2021/10/05 09:53:04;;;;;;;0.10;0.10;;;;;;;;;;5003137;28;20032;-80
2021/10/05 09:55:38;;;;;;;0.30;0.28;;;;;;;;;;5001056;28;20068;-80
2021/10/05 09:58:04;;;;;;;0.22;0.22;;;;;;;;;;5004797;28;20565;-80
2021/10/05 10:00:32;;;;;;;0.00;0.00;;;;;;;;;;5002157;28;20045;-81
2021/10/05 10:02:58;;;;;;;0.10;0.10;;;;;;;;;;5002860;28;20034;-80
2021/10/05 10:05:26;;;;;;;15.17;0.40;;;;;;;;;;5006170;28;20041;-80
2021/10/05 10:07:56;;;;;;;0.10;0.10;;;;;;;;;;5006460;28;20735;-80
2021/10/05 10:10:23;;;;;;;0.32;0.32;;;;;;;;;;5006626;28;20038;-80
2021/10/05 10:12:49;;;;;;;0.57;0.57;;;;;;;;;;5006324;28;20034;-80
2021/10/05 10:15:16;;;;;;;0.10;0.10;;;;;;;;;;5006079;28;20032;-81
2021/10/05 10:17:42;;;;;;;0.10;0.10;;;;;;;;;;5005606;28;20171;-81
2021/10/05 10:20:19;;;;;;;0.17;0.17;;;;;;;;;;5006362;28;20034;-81
2021/10/05 10:22:45;;;;;;;0.05;0.05;;;;;;;;;;4991236;28;20034;-81
2021/10/05 10:25:21;;;;;;;0.08;0.08;;;;;;;;;;5007867;28;20061;-81
2021/10/05 10:27:47;;;;;;;0.80;0.40;;;;;;;;;;5007273;28;20038;-80
2021/10/05 10:30:13;;;;;;;0.20;0.20;;;;;;;;;;5003943;28;20065;-80
2021/10/05 10:32:50;;;;;;;0.20;0.20;;;;;;;;;;5004327;28;20030;-80
2021/10/05 10:35:16;;;;;;;0.13;0.13;;;;;;;;;;4995626;28;20087;-80
2021/10/05 10:37:52;;;;;;;0.10;0.10;;;;;;;;;;5005700;28;20700;-81
2021/10/05 10:40:31;;;;;;;0.10;0.10;;;;;;;;;;5006705;28;20696;-80
2021/10/05 10:42:57;;;;;;;0.10;0.10;;;;;;;;;;5006694;28;20840;-81
2021/10/05 10:45:23;;;;;;;1.07;0.63;;;;;;;;;;5005016;28;20044;-81
2021/10/05 10:47:52;;;;;;;0.10;0.10;;;;;;;;;;5005752;28;20033;-81
2021/10/05 10:50:18;;;;;;;1.13;0.40;;;;;;;;;;5005235;28;20203;-79
2021/10/05 10:52:48;;;;;;;0.10;0.10;;;;;;;;;;5005181;28;20041;-81
2021/10/05 10:55:19;;;;;;;0.00;0.00;;;;;;;;;;5006642;28;20026;-80
2021/10/05 10:57:45;;;;;;;0.10;0.10;;;;;;;;;;5005287;28;20478;-81
2021/10/05 11:00:15;;;;;;;0.30;0.30;;;;;;;;;;5005083;28;20041;-81
2021/10/05 11:02:42;;;;;;;0.10;0.10;;;;;;;;;;5005083;28;20121;-81
2021/10/05 11:05:08;;;;;;;;;;;;;;;;;;5005692;28;20140;-81
2021/10/05 11:07:34;;;;;;;0.63;0.63;;;;;;;;;;5004896;28;20279;-80
2021/10/05 11:10:00;;;;;;;0.10;0.10;;;;;;;;;;5007550;28;20184;-81
2021/10/05 11:12:26;;;;;;;0.10;0.10;;;;;;;;;;5004419;28;20105;-81
2021/10/05 11:14:52;;;;;;;0.10;0.10;;;;;;;;;;5004540;28;20938;-81
2021/10/05 11:17:18;;;;;;;0.30;0.13;;;;;;;;;;5004837;28;20061;-81
2021/10/05 11:19:44;;;;;;;0.10;0.10;;;;;;;;;;5005039;28;20054;-81
2021/10/05 11:22:12;;;;;;;0.00;0.00;;;;;;;;;;5005057;28;20680;-80
2021/10/05 11:24:43;;;;;;;0.52;0.15;;;;;;;;;;5003975;28;20833;-81
2021/10/05 11:27:11;;;;;;;0.10;0.10;;;;;;;;;;5004515;28;20026;-81
2021/10/05 11:29:37;;;;;;;0.00;0.00;;;;;;;;;;5004341;28;20052;-81
2021/10/05 11:32:05;;;;;;;0.28;0.28;;;;;;;;;;5006798;28;20446;-81
2021/10/05 11:34:33;;;;;;;0.10;0.10;;;;;;;;;;4990708;28;20073;-83
2021/10/05 11:37:01;;;;;;;0.10;0.10;;;;;;;;;;5006010;28;20036;-83
2021/10/05 11:39:28;;;;;;;0.10;0.10;;;;;;;;;;5004338;28;20034;-80
2021/10/05 11:41:54;;;;;;;;;;;;;;;;;;5004488;28;20037;-81
2021/10/05 11:44:21;;;;;;;0.20;0.20;;;;;;;;;;5004347;28;19915;-80
2021/10/05 11:46:53;;;;;;;0.08;0.08;;;;;;;;;;5004227;28;20038;-81
2021/10/05 11:49:19;;;;;;;0.65;0.65;;;;;;;;;;5005191;28;20029;-82
2021/10/05 11:51:46;;;;;;;0.00;0.00;;;;;;;;;;5005629;28;20045;-82
2021/10/05 11:54:22;;;;;;;0.17;0.17;;;;;;;;;;5004216;28;20657;-82
2021/10/05 11:56:48;;;;;;;0.10;0.10;;;;;;;;;;5003781;28;20065;-82
2021/10/05 11:59:33;;;;;;;0.10;0.10;;;;;;;;;;5003757;28;20034;-82
2021/10/05 12:02:07;;;;;;;0.43;0.43;;;;;;;;;;5004116;28;20030;-82
2021/10/05 12:04:34;;;;;;;0.10;0.10;;;;;;;;;;5002710;28;20026;-81
2021/10/05 12:07:01;;;;;;;;;;;;;;;;;;5006385;28;20479;-82
2021/10/05 12:09:27;;;;;;;0.03;0.03;;;;;;;;;;5004047;28;19913;-81
2021/10/05 12:11:57;;;;;;;0.08;0.08;;;;;;;;;;5003398;28;20111;-81
2021/10/05 12:14:27;;;;;;;0.10;0.10;;;;;;;;;;5003530;28;20030;-81
2021/10/05 12:17:04;;;;;;;0.00;0.00;;;;;;;;;;5004153;28;20119;-81
2021/10/05 12:19:33;;;;;;;0.08;0.08;;;;;;;;;;5003760;28;20730;-81
2021/10/05 12:22:00;;;;;;;0.30;0.30;;;;;;;;;;5005680;28;20059;-82
2021/10/05 12:24:35;;;;;;;0.00;0.00;;;;;;;;;;5003934;28;20068;-81
2021/10/05 12:27:01;;;;;;;0.20;0.20;;;;;;;;;;5002410;28;20115;-82
2021/10/05 12:29:27;;;;;;;0.10;0.10;;;;;;;;;;5003560;28;20028;-81
2021/10/05 12:31:57;;;;;;;0.05;0.05;;;;;;;;;;5004082;28;20069;-82
2021/10/05 12:34:35;;;;;;;0.20;0.20;;;;;;;;;;4990316;28;20026;-81
2021/10/05 12:37:03;;;;;;;0.10;0.10;;;;;;;;;;5004894;28;20037;-81
2021/10/05 12:39:29;;;;;;;0.10;0.10;;;;;;;;;;5003010;28;20025;-81
2021/10/05 12:42:00;;;;;;;0.03;0.03;;;;;;;;;;5003006;28;20038;-82
2021/10/05 12:44:26;;;;;;;0.10;0.10;;;;;;;;;;5003049;28;20624;-81
2021/10/05 12:46:57;;;;;;;5.43;0.50;;;;;;;;;;5003521;28;20621;-81
2021/10/05 12:49:23;;;;;;;0.00;0.00;;;;;;;;;;5003640;28;20030;-83
2021/10/05 12:51:51;;;;;;;0.10;0.10;;;;;;;;;;5003236;28;20029;-82
2021/10/05 12:54:17;;;;;;;0.00;0.00;;;;;;;;;;5002613;28;20061;-82
2021/10/05 12:56:43;;;;;;;0.20;0.10;;;;;;;;;;5003105;28;20561;-82
2021/10/05 12:59:10;;;;;;;0.22;0.22;;;;;;;;;;5003147;28;20757;-82
2021/10/05 13:01:37;;;;;;;0.20;0.20;;;;;;;;;;5003033;28;20803;-82
2021/10/05 13:04:03;;;;;;;;;;;;;;;;;;5005501;28;20037;-82
2021/10/05 13:06:29;;;;;;;0.08;0.08;;;;;;;;;;5002969;28;19913;-81
2021/10/05 13:08:55;;;;;;;0.00;0.00;;;;;;;;;;5002484;28;20042;-82
2021/10/05 13:11:21;;;;;;;2.85;0.15;;;;;;;;;;5002787;28;20045;-82
2021/10/05 13:13:47;;;;;;;0.10;0.10;;;;;;;;;;5002571;28;20785;-82
2021/10/05 13:16:13;;;;;;;0.20;0.20;;;;;;;;;;5004252;28;20112;-82
2021/10/05 13:18:39;;;;;;;0.25;0.25;;;;;;;;;;5003430;28;20293;-82
2021/10/05 13:21:05;;;;;;;9.60;0.38;;;;;;;;;;5001942;28;20037;-83
2021/10/05 13:23:32;;;;;;;0.10;0.10;;;;;;;;;;5002015;28;20133;-82
2021/10/05 13:25:58;;;;;;;0.00;0.00;;;;;;;;;;5002415;28;20120;-81
2021/10/05 13:28:24;;;;;;;0.32;0.20;;;;;;;;;;5003609;28;20022;-83
2021/10/05 13:30:50;;;;;;;0.10;0.10;;;;;;;;;;5004875;28;20046;-82
2021/10/05 13:33:16;;;;;;;0.10;0.10;;;;;;;;;;4995830;28;20284;-82
2021/10/05 13:35:42;;;;;;;0.40;0.40;;;;;;;;;;4995651;28;20030;-82
2021/10/05 13:38:08;;;;;;;0.10;0.10;;;;;;;;;;5001048;28;20034;-82
2021/10/05 13:40:41;;;;;;;0.10;0.10;;;;;;;;;;5000730;28;20030;-82
2021/10/05 13:43:07;;;;;;;0.00;0.00;;;;;;;;;;5000504;28;20026;-83
2021/10/05 13:45:33;;;;;;;0.00;0.00;;;;;;;;;;5002293;28;20457;-82
2021/10/05 13:47:59;;;;;;;0.20;0.20;;;;;;;;;;5002684;28;20067;-82
2021/10/05 13:50:25;;;;;;;0.80;0.80;;;;;;;;;;5002379;28;20530;-82
2021/10/05 13:52:52;;;;;;;0.00;0.00;;;;;;;;;;5000831;28;20495;-82
2021/10/05 13:55:18;;;;;;;0.45;0.25;;;;;;;;;;5003873;28;20092;-82
2021/10/05 13:57:44;;;;;;;0.15;0.15;;;;;;;;;;5003586;28;20117;-82
2021/10/05 14:00:10;;;;;;;0.10;0.10;;;;;;;;;;5002419;28;20068;-82
2021/10/05 14:02:36;;;;;;;;;;;;;;;;;;5002035;28;20781;-81
2021/10/05 14:05:03;;;;;;;0.00;0.00;;;;;;;;;;5002620;28;19919;-82
2021/10/05 14:07:29;;;;;;;0.20;0.20;;;;;;;;;;5002037;28;20069;-82
2021/10/05 14:09:55;;;;;;;1.20;0.95;;;;;;;;;;5004383;28;20030;-82
2021/10/05 14:12:21;;;;;;;0.00;0.00;;;;;;;;;;5001787;28;20050;-82
2021/10/05 14:14:48;;;;;;;0.50;0.33;;;;;;;;;;5001991;28;20029;-81
2021/10/05 14:17:15;;;;;;;0.00;0.00;;;;;;;;;;5001996;28;20792;-82
2021/10/05 14:19:41;;;;;;;0.00;0.00;;;;;;;;;;5002217;28;20046;-82
2021/10/05 14:22:07;;;;;;;0.77;0.28;;;;;;;;;;4999592;28;20169;-82
2021/10/05 14:24:33;;;;;;;1.45;0.90;;;;;;;;;;5000683;28;20034;-82
2021/10/05 14:26:59;;;;;;;0.08;0.08;;;;;;;;;;5001981;28;20034;-81
2021/10/05 14:29:25;;;;;;;0.17;0.17;;;;;;;;;;5002232;28;20034;-82
2021/10/05 14:31:51;;;;;;;0.30;0.30;;;;;;;;;;5001665;28;20498;-81
2021/10/05 14:34:17;;;;;;;0.20;0.20;;;;;;;;;;4989729;28;20715;-81
2021/10/05 14:36:43;;;;;;;0.10;0.10;;;;;;;;;;5003065;28;20483;-81
2021/10/05 14:39:09;;;;;;;0.38;0.38;;;;;;;;;;5002000;28;20562;-81
2021/10/05 14:41:35;;;;;;;0.30;0.30;;;;;;;;;;5001633;28;20656;-82
2021/10/05 14:44:02;;;;;;;0.10;0.10;;;;;;;;;;5002227;28;20285;-81